sensor_id;sensor_type;location;lat;lon;timestamp;temperature;humidity
10300;DHT22;5195;48.562;9.192;2022-09-14T00:01:31;23.80;49.80
10300;DHT22;5195;48.562;9.192;2022-09-14T00:03:57;23.90;50.50
10300;DHT22;5195;48.562;9.192;2022-09-14T00:06:22;23.60;50.20
10300;DHT22;5195;48.562;9.192;2022-09-14T00:08:49;23.80;50.10
10300;DHT22;5195;48.562;9.192;2022-09-14T00:11:16;23.80;50.40
10300;DHT22;5195;48.562;9.192;2022-09-14T00:13:42;23.70;50.10
10300;DHT22;5195;48.562;9.192;2022-09-14T00:16:09;23.80;50.40
10300;DHT22;5195;48.562;9.192;2022-09-14T00:18:33;23.70;50.30
10300;DHT22;5195;48.562;9.192;2022-09-14T00:21:02;23.50;50.60
10300;DHT22;5195;48.562;9.192;2022-09-14T00:23:24;23.30;50.90
10300;DHT22;5195;48.562;9.192;2022-09-14T00:25:49;23.50;50.90
10300;DHT22;5195;48.562;9.192;2022-09-14T00:28:15;23.80;50.80
10300;DHT22;5195;48.562;9.192;2022-09-14T00:30:40;24.10;50.30
10300;DHT22;5195;48.562;9.192;2022-09-14T00:33:07;24.40;49.60
10300;DHT22;5195;48.562;9.192;2022-09-14T00:35:34;24.40;49.60
10300;DHT22;5195;48.562;9.192;2022-09-14T00:38:01;24.20;49.60
10300;DHT22;5195;48.562;9.192;2022-09-14T00:40:29;23.60;50.70
10300;DHT22;5195;48.562;9.192;2022-09-14T00:42:54;23.60;50.70
10300;DHT22;5195;48.562;9.192;2022-09-14T00:45:20;23.70;51.00
10300;DHT22;5195;48.562;9.192;2022-09-14T00:47:46;23.60;50.60
10300;DHT22;5195;48.562;9.192;2022-09-14T00:50:11;23.70;50.40
10300;DHT22;5195;48.562;9.192;2022-09-14T00:52:37;23.90;50.20
10300;DHT22;5195;48.562;9.192;2022-09-14T00:55:09;23.80;50.10
10300;DHT22;5195;48.562;9.192;2022-09-14T00:57:33;23.50;50.50
10300;DHT22;5195;48.562;9.192;2022-09-14T00:59:58;23.30;50.80
10300;DHT22;5195;48.562;9.192;2022-09-14T01:02:24;23.10;51.00
10300;DHT22;5195;48.562;9.192;2022-09-14T01:04:49;23.30;51.30
10300;DHT22;5195;48.562;9.192;2022-09-14T01:13:15;23.50;51.20
10300;DHT22;5195;48.562;9.192;2022-09-14T01:18:22;23.80;50.60
10300;DHT22;5195;48.562;9.192;2022-09-14T01:21:19;23.40;51.30
10300;DHT22;5195;48.562;9.192;2022-09-14T01:29:04;23.30;52.50
10300;DHT22;5195;48.562;9.192;2022-09-14T01:34:00;23.20;55.00
10300;DHT22;5195;48.562;9.192;2022-09-14T01:36:23;22.90;54.00
10300;DHT22;5195;48.562;9.192;2022-09-14T01:38:49;22.90;54.00
10300;DHT22;5195;48.562;9.192;2022-09-14T01:41:14;22.80;55.50
10300;DHT22;5195;48.562;9.192;2022-09-14T01:43:43;22.90;55.50
10300;DHT22;5195;48.562;9.192;2022-09-14T01:46:23;23.00;55.60
10300;DHT22;5195;48.562;9.192;2022-09-14T01:51:33;22.30;55.80
10300;DHT22;5195;48.562;9.192;2022-09-14T01:54:04;22.00;56.20
10300;DHT22;5195;48.562;9.192;2022-09-14T01:56:32;21.80;56.60
10300;DHT22;5195;48.562;9.192;2022-09-14T01:59:09;21.70;57.00
10300;DHT22;5195;48.562;9.192;2022-09-14T02:01:33;21.50;57.10
10300;DHT22;5195;48.562;9.192;2022-09-14T02:03:59;21.90;57.70
10300;DHT22;5195;48.562;9.192;2022-09-14T02:06:29;22.10;58.50
10300;DHT22;5195;48.562;9.192;2022-09-14T02:08:53;22.10;58.50
10300;DHT22;5195;48.562;9.192;2022-09-14T02:11:18;22.00;57.80
10300;DHT22;5195;48.562;9.192;2022-09-14T02:13:44;22.20;58.10
10300;DHT22;5195;48.562;9.192;2022-09-14T02:16:10;22.20;57.70
10300;DHT22;5195;48.562;9.192;2022-09-14T02:18:36;22.40;58.00
10300;DHT22;5195;48.562;9.192;2022-09-14T02:21:12;22.30;57.80
10300;DHT22;5195;48.562;9.192;2022-09-14T02:23:36;22.40;58.70
10300;DHT22;5195;48.562;9.192;2022-09-14T02:26:02;22.70;58.50
10300;DHT22;5195;48.562;9.192;2022-09-14T02:28:27;22.60;58.10
10300;DHT22;5195;48.562;9.192;2022-09-14T02:30:57;22.50;58.60
10300;DHT22;5195;48.562;9.192;2022-09-14T02:33:42;22.50;58.60
10300;DHT22;5195;48.562;9.192;2022-09-14T02:35:57;22.60;58.90
10300;DHT22;5195;48.562;9.192;2022-09-14T02:38:25;22.80;58.20
10300;DHT22;5195;48.562;9.192;2022-09-14T02:40:58;22.70;58.00
10300;DHT22;5195;48.562;9.192;2022-09-14T02:46:42;22.80;57.90
10300;DHT22;5195;48.562;9.192;2022-09-14T02:52:01;22.70;57.30
10300;DHT22;5195;48.562;9.192;2022-09-14T02:54:28;22.70;58.20
10300;DHT22;5195;48.562;9.192;2022-09-14T02:56:49;22.90;58.10
10300;DHT22;5195;48.562;9.192;2022-09-14T02:59:15;22.70;57.80
10300;DHT22;5195;48.562;9.192;2022-09-14T03:01:40;22.40;58.20
10300;DHT22;5195;48.562;9.192;2022-09-14T03:04:07;22.50;58.70
10300;DHT22;5195;48.562;9.192;2022-09-14T03:06:32;22.40;58.40
10300;DHT22;5195;48.562;9.192;2022-09-14T03:08:58;22.20;58.60
10300;DHT22;5195;48.562;9.192;2022-09-14T03:11:24;22.20;58.50
10300;DHT22;5195;48.562;9.192;2022-09-14T03:13:50;22.30;59.80
10300;DHT22;5195;48.562;9.192;2022-09-14T03:16:17;22.30;59.80
10300;DHT22;5195;48.562;9.192;2022-09-14T03:18:44;22.10;59.50
10300;DHT22;5195;48.562;9.192;2022-09-14T03:21:11;21.80;60.10
10300;DHT22;5195;48.562;9.192;2022-09-14T03:23:36;21.50;60.40
10300;DHT22;5195;48.562;9.192;2022-09-14T03:26:04;21.30;60.80
10300;DHT22;5195;48.562;9.192;2022-09-14T03:28:27;21.10;61.20
10300;DHT22;5195;48.562;9.192;2022-09-14T03:30:52;21.00;61.80
10300;DHT22;5195;48.562;9.192;2022-09-14T03:33:18;20.90;62.20
10300;DHT22;5195;48.562;9.192;2022-09-14T03:35:44;21.60;63.60
10300;DHT22;5195;48.562;9.192;2022-09-14T03:38:10;21.80;62.80
10300;DHT22;5195;48.562;9.192;2022-09-14T03:40:37;21.80;62.80
10300;DHT22;5195;48.562;9.192;2022-09-14T03:43:02;21.70;62.30
10300;DHT22;5195;48.562;9.192;2022-09-14T03:45:27;21.40;62.60
10300;DHT22;5195;48.562;9.192;2022-09-14T03:47:53;21.20;63.20
10300;DHT22;5195;48.562;9.192;2022-09-14T03:50:18;21.30;64.40
10300;DHT22;5195;48.562;9.192;2022-09-14T03:52:44;21.60;63.10
10300;DHT22;5195;48.562;9.192;2022-09-14T03:55:10;21.50;62.80
10300;DHT22;5195;48.562;9.192;2022-09-14T03:57:35;21.60;63.10
10300;DHT22;5195;48.562;9.192;2022-09-14T04:00:02;21.60;62.30
10300;DHT22;5195;48.562;9.192;2022-09-14T04:02:27;21.60;62.20
10300;DHT22;5195;48.562;9.192;2022-09-14T04:04:53;21.70;62.90
10300;DHT22;5195;48.562;9.192;2022-09-14T04:07:18;21.90;62.00
10300;DHT22;5195;48.562;9.192;2022-09-14T04:09:44;21.90;61.70
10300;DHT22;5195;48.562;9.192;2022-09-14T04:12:10;21.80;61.60
10300;DHT22;5195;48.562;9.192;2022-09-14T04:14:36;21.60;62.30
10300;DHT22;5195;48.562;9.192;2022-09-14T04:17:02;21.60;62.30
10300;DHT22;5195;48.562;9.192;2022-09-14T04:19:27;21.50;62.30
10300;DHT22;5195;48.562;9.192;2022-09-14T04:21:52;21.30;62.80
10300;DHT22;5195;48.562;9.192;2022-09-14T04:24:18;21.40;63.70
10300;DHT22;5195;48.562;9.192;2022-09-14T04:26:44;21.70;62.60
10300;DHT22;5195;48.562;9.192;2022-09-14T04:29:09;22.00;63.10
10300;DHT22;5195;48.562;9.192;2022-09-14T04:31:35;21.90;62.40
10300;DHT22;5195;48.562;9.192;2022-09-14T04:34:02;21.70;62.90
10300;DHT22;5195;48.562;9.192;2022-09-14T04:36:28;21.80;63.70
10300;DHT22;5195;48.562;9.192;2022-09-14T04:38:54;22.00;63.40
10300;DHT22;5195;48.562;9.192;2022-09-14T04:41:19;21.90;63.20
10300;DHT22;5195;48.562;9.192;2022-09-14T04:43:49;21.90;63.40
10300;DHT22;5195;48.562;9.192;2022-09-14T04:46:16;21.90;63.50
10300;DHT22;5195;48.562;9.192;2022-09-14T04:48:40;21.90;63.70
10300;DHT22;5195;48.562;9.192;2022-09-14T04:51:07;22.10;63.10
10300;DHT22;5195;48.562;9.192;2022-09-14T04:53:33;22.00;62.70
10300;DHT22;5195;48.562;9.192;2022-09-14T04:56:02;22.00;62.70
10300;DHT22;5195;48.562;9.192;2022-09-14T04:58:27;22.20;62.90
10300;DHT22;5195;48.562;9.192;2022-09-14T05:01:01;22.10;62.70
10300;DHT22;5195;48.562;9.192;2022-09-14T05:03:26;22.10;62.60
10300;DHT22;5195;48.562;9.192;2022-09-14T05:05:51;21.70;63.40
10300;DHT22;5195;48.562;9.192;2022-09-14T05:08:17;21.50;64.20
10300;DHT22;5195;48.562;9.192;2022-09-14T05:10:43;21.30;64.70
10300;DHT22;5195;48.562;9.192;2022-09-14T05:13:10;21.10;65.20
10300;DHT22;5195;48.562;9.192;2022-09-14T05:15:35;21.30;65.60
10300;DHT22;5195;48.562;9.192;2022-09-14T05:18:02;21.70;65.00
10300;DHT22;5195;48.562;9.192;2022-09-14T05:20:29;21.60;64.70
10300;DHT22;5195;48.562;9.192;2022-09-14T05:22:54;21.40;65.20
10300;DHT22;5195;48.562;9.192;2022-09-14T05:25:20;21.50;65.10
10300;DHT22;5195;48.562;9.192;2022-09-14T05:27:45;21.50;64.90
10300;DHT22;5195;48.562;9.192;2022-09-14T05:30:11;21.20;65.20
10300;DHT22;5195;48.562;9.192;2022-09-14T05:32:38;21.40;65.30
10300;DHT22;5195;48.562;9.192;2022-09-14T05:35:03;21.40;65.10
10300;DHT22;5195;48.562;9.192;2022-09-14T05:37:29;21.50;65.60
10300;DHT22;5195;48.562;9.192;2022-09-14T05:39:54;21.80;65.30
10300;DHT22;5195;48.562;9.192;2022-09-14T05:42:20;21.70;65.20
10300;DHT22;5195;48.562;9.192;2022-09-14T05:44:46;21.80;65.60
10300;DHT22;5195;48.562;9.192;2022-09-14T05:47:11;21.70;65.50
10300;DHT22;5195;48.562;9.192;2022-09-14T05:49:37;22.00;66.10
10300;DHT22;5195;48.562;9.192;2022-09-14T05:52:03;22.00;65.40
10300;DHT22;5195;48.562;9.192;2022-09-14T05:54:29;22.20;64.60
10300;DHT22;5195;48.562;9.192;2022-09-14T05:56:54;22.40;64.40
10300;DHT22;5195;48.562;9.192;2022-09-14T05:59:20;22.50;64.10
10300;DHT22;5195;48.562;9.192;2022-09-14T06:01:45;22.30;65.00
10300;DHT22;5195;48.562;9.192;2022-09-14T06:04:11;22.40;65.00
10300;DHT22;5195;48.562;9.192;2022-09-14T06:06:37;22.50;64.70
10300;DHT22;5195;48.562;9.192;2022-09-14T06:09:02;22.40;64.80
10300;DHT22;5195;48.562;9.192;2022-09-14T06:11:29;22.50;65.10
10300;DHT22;5195;48.562;9.192;2022-09-14T06:13:58;22.70;64.40
10300;DHT22;5195;48.562;9.192;2022-09-14T06:16:24;22.90;64.00
10300;DHT22;5195;48.562;9.192;2022-09-14T06:18:49;23.00;63.40
10300;DHT22;5195;48.562;9.192;2022-09-14T06:21:17;22.90;63.00
10300;DHT22;5195;48.562;9.192;2022-09-14T06:23:41;22.90;63.00
10300;DHT22;5195;48.562;9.192;2022-09-14T06:26:06;22.60;63.90
10300;DHT22;5195;48.562;9.192;2022-09-14T06:28:32;22.40;64.80
10300;DHT22;5195;48.562;9.192;2022-09-14T06:30:57;22.50;66.20
10300;DHT22;5195;48.562;9.192;2022-09-14T06:33:23;22.70;64.90
10300;DHT22;5195;48.562;9.192;2022-09-14T06:35:56;23.00;64.30
10300;DHT22;5195;48.562;9.192;2022-09-14T06:38:22;23.00;63.60
10300;DHT22;5195;48.562;9.192;2022-09-14T06:40:58;22.70;64.30
10300;DHT22;5195;48.562;9.192;2022-09-14T06:43:24;22.70;64.30
10300;DHT22;5195;48.562;9.192;2022-09-14T06:46:03;22.40;64.90
10300;DHT22;5195;48.562;9.192;2022-09-14T06:48:30;22.50;65.40
10300;DHT22;5195;48.562;9.192;2022-09-14T06:50:55;22.60;65.20
10300;DHT22;5195;48.562;9.192;2022-09-14T06:53:21;22.60;65.20
10300;DHT22;5195;48.562;9.192;2022-09-14T06:55:48;22.60;65.00
10300;DHT22;5195;48.562;9.192;2022-09-14T06:58:13;22.70;65.60
10300;DHT22;5195;48.562;9.192;2022-09-14T07:00:39;23.00;65.30
10300;DHT22;5195;48.562;9.192;2022-09-14T07:03:04;23.30;65.30
10300;DHT22;5195;48.562;9.192;2022-09-14T07:05:30;23.50;63.80
10300;DHT22;5195;48.562;9.192;2022-09-14T07:07:56;23.60;63.20
10300;DHT22;5195;48.562;9.192;2022-09-14T07:10:21;23.70;62.90
10300;DHT22;5195;48.562;9.192;2022-09-14T07:12:47;23.50;63.30
10300;DHT22;5195;48.562;9.192;2022-09-14T07:15:12;23.20;64.10
10300;DHT22;5195;48.562;9.192;2022-09-14T07:17:38;23.00;65.00
10300;DHT22;5195;48.562;9.192;2022-09-14T07:20:04;23.10;65.50
10300;DHT22;5195;48.562;9.192;2022-09-14T07:22:31;23.40;64.40
10300;DHT22;5195;48.562;9.192;2022-09-14T07:24:56;23.40;64.40
10300;DHT22;5195;48.562;9.192;2022-09-14T07:27:21;23.30;65.10
10300;DHT22;5195;48.562;9.192;2022-09-14T07:29:47;23.50;65.00
10300;DHT22;5195;48.562;9.192;2022-09-14T07:32:12;23.50;65.10
10300;DHT22;5195;48.562;9.192;2022-09-14T07:34:38;23.40;65.50
10300;DHT22;5195;48.562;9.192;2022-09-14T07:37:05;23.60;65.00
10300;DHT22;5195;48.562;9.192;2022-09-14T07:39:30;24.00;64.00
10300;DHT22;5195;48.562;9.192;2022-09-14T07:41:56;24.10;63.80
10300;DHT22;5195;48.562;9.192;2022-09-14T07:44:23;24.30;63.20
10300;DHT22;5195;48.562;9.192;2022-09-14T07:46:49;24.30;63.10
10300;DHT22;5195;48.562;9.192;2022-09-14T07:49:14;24.10;63.40
10300;DHT22;5195;48.562;9.192;2022-09-14T07:51:40;24.10;63.90
10300;DHT22;5195;48.562;9.192;2022-09-14T07:54:08;24.30;64.00
10300;DHT22;5195;48.562;9.192;2022-09-14T07:56:33;24.50;63.70
10300;DHT22;5195;48.562;9.192;2022-09-14T07:58:59;24.50;63.70
10300;DHT22;5195;48.562;9.192;2022-09-14T08:01:26;24.80;63.00
10300;DHT22;5195;48.562;9.192;2022-09-14T08:03:51;24.90;62.40
10300;DHT22;5195;48.562;9.192;2022-09-14T08:06:18;24.80;62.30
10300;DHT22;5195;48.562;9.192;2022-09-14T08:08:44;24.80;63.40
10300;DHT22;5195;48.562;9.192;2022-09-14T08:11:27;24.80;63.40
10300;DHT22;5195;48.562;9.192;2022-09-14T08:13:52;24.80;63.70
10300;DHT22;5195;48.562;9.192;2022-09-14T08:16:18;25.00;63.60
10300;DHT22;5195;48.562;9.192;2022-09-14T08:18:44;25.00;63.60
10300;DHT22;5195;48.562;9.192;2022-09-14T08:21:11;25.40;61.90
10300;DHT22;5195;48.562;9.192;2022-09-14T08:23:35;25.90;62.30
10300;DHT22;5195;48.562;9.192;2022-09-14T08:26:04;26.30;61.40
10300;DHT22;5195;48.562;9.192;2022-09-14T08:28:29;26.70;58.90
10300;DHT22;5195;48.562;9.192;2022-09-14T08:31:00;26.70;58.90
10300;DHT22;5195;48.562;9.192;2022-09-14T08:33:20;26.70;58.00
10300;DHT22;5195;48.562;9.192;2022-09-14T08:35:46;26.90;57.20
10300;DHT22;5195;48.562;9.192;2022-09-14T08:38:12;26.80;57.60
10300;DHT22;5195;48.562;9.192;2022-09-14T08:40:44;26.60;57.80
10300;DHT22;5195;48.562;9.192;2022-09-14T08:43:10;26.70;55.90
10300;DHT22;5195;48.562;9.192;2022-09-14T08:45:37;26.80;56.00
10300;DHT22;5195;48.562;9.192;2022-09-14T08:48:02;26.60;56.40
10300;DHT22;5195;48.562;9.192;2022-09-14T08:50:28;26.30;57.40
10300;DHT22;5195;48.562;9.192;2022-09-14T08:52:55;26.20;58.90
10300;DHT22;5195;48.562;9.192;2022-09-14T08:55:41;26.30;58.90
10300;DHT22;5195;48.562;9.192;2022-09-14T09:00:40;26.80;59.20
10300;DHT22;5195;48.562;9.192;2022-09-14T09:06:01;26.90;58.10
10300;DHT22;5195;48.562;9.192;2022-09-14T09:11:16;27.70;56.80
10300;DHT22;5195;48.562;9.192;2022-09-14T09:13:39;27.80;56.60
10300;DHT22;5195;48.562;9.192;2022-09-14T09:16:07;28.10;55.80
10300;DHT22;5195;48.562;9.192;2022-09-14T09:18:40;28.30;55.60
10300;DHT22;5195;48.562;9.192;2022-09-14T09:21:15;28.50;53.50
10300;DHT22;5195;48.562;9.192;2022-09-14T09:23:39;28.80;51.90
10300;DHT22;5195;48.562;9.192;2022-09-14T09:28:33;29.00;51.30
10300;DHT22;5195;48.562;9.192;2022-09-14T09:31:00;29.20;50.50
10300;DHT22;5195;48.562;9.192;2022-09-14T09:33:25;29.20;50.50
10300;DHT22;5195;48.562;9.192;2022-09-14T09:35:51;29.20;51.60
10300;DHT22;5195;48.562;9.192;2022-09-14T09:38:17;29.30;51.00
10300;DHT22;5195;48.562;9.192;2022-09-14T09:40:47;29.30;51.40
10300;DHT22;5195;48.562;9.192;2022-09-14T09:43:13;29.30;51.90
10300;DHT22;5195;48.562;9.192;2022-09-14T09:45:58;29.20;51.90
10300;DHT22;5195;48.562;9.192;2022-09-14T09:48:25;29.50;50.50
10300;DHT22;5195;48.562;9.192;2022-09-14T09:51:11;29.90;50.30
10300;DHT22;5195;48.562;9.192;2022-09-14T09:53:36;29.70;50.80
10300;DHT22;5195;48.562;9.192;2022-09-14T09:56:01;29.70;50.80
10300;DHT22;5195;48.562;9.192;2022-09-14T09:58:35;29.60;51.20
10300;DHT22;5195;48.562;9.192;2022-09-14T10:01:08;29.60;52.00
10300;DHT22;5195;48.562;9.192;2022-09-14T10:03:36;29.90;50.70
10300;DHT22;5195;48.562;9.192;2022-09-14T10:06:02;30.40;47.90
10300;DHT22;5195;48.562;9.192;2022-09-14T10:08:26;30.70;47.20
10300;DHT22;5195;48.562;9.192;2022-09-14T10:10:52;30.80;48.40
10300;DHT22;5195;48.562;9.192;2022-09-14T10:13:26;30.60;48.90
10300;DHT22;5195;48.562;9.192;2022-09-14T10:15:46;30.50;48.50
10300;DHT22;5195;48.562;9.192;2022-09-14T10:25:46;30.20;48.10
10300;DHT22;5195;48.562;9.192;2022-09-14T10:28:29;30.00;49.00
10300;DHT22;5195;48.562;9.192;2022-09-14T10:33:40;29.60;49.30
10300;DHT22;5195;48.562;9.192;2022-09-14T10:55:24;29.90;49.10
10300;DHT22;5195;48.562;9.192;2022-09-14T10:58:23;29.60;49.40
10300;DHT22;5195;48.562;9.192;2022-09-14T11:00:52;29.90;47.80
10300;DHT22;5195;48.562;9.192;2022-09-14T11:03:24;30.20;46.70
10300;DHT22;5195;48.562;9.192;2022-09-14T11:06:09;30.10;47.30
10300;DHT22;5195;48.562;9.192;2022-09-14T11:08:40;30.00;47.70
10300;DHT22;5195;48.562;9.192;2022-09-14T11:11:30;29.70;47.40
10300;DHT22;5195;48.562;9.192;2022-09-14T11:17:13;29.40;47.80
10300;DHT22;5195;48.562;9.192;2022-09-14T11:19:50;29.30;47.90
10300;DHT22;5195;48.562;9.192;2022-09-14T11:22:49;29.10;47.70
10300;DHT22;5195;48.562;9.192;2022-09-14T11:25:23;29.30;45.20
10300;DHT22;5195;48.562;9.192;2022-09-14T11:28:09;29.60;43.50
10300;DHT22;5195;48.562;9.192;2022-09-14T11:30:35;29.50;44.50
10300;DHT22;5195;48.562;9.192;2022-09-14T11:33:19;29.60;43.90
10300;DHT22;5195;48.562;9.192;2022-09-14T11:35:44;29.40;44.50
10300;DHT22;5195;48.562;9.192;2022-09-14T11:41:12;28.90;46.10
10300;DHT22;5195;48.562;9.192;2022-09-14T11:43:45;28.90;46.90
10300;DHT22;5195;48.562;9.192;2022-09-14T11:46:13;29.10;45.20
10300;DHT22;5195;48.562;9.192;2022-09-14T11:48:46;29.50;44.90
10300;DHT22;5195;48.562;9.192;2022-09-14T11:51:23;30.00;43.90
10300;DHT22;5195;48.562;9.192;2022-09-14T11:53:48;30.00;43.90
10300;DHT22;5195;48.562;9.192;2022-09-14T11:56:24;30.20;43.00
10300;DHT22;5195;48.562;9.192;2022-09-14T11:58:49;30.00;44.20
10300;DHT22;5195;48.562;9.192;2022-09-14T12:01:31;29.90;44.40
10300;DHT22;5195;48.562;9.192;2022-09-14T12:04:12;30.00;44.20
10300;DHT22;5195;48.562;9.192;2022-09-14T12:11:38;29.30;46.00
10300;DHT22;5195;48.562;9.192;2022-09-14T12:14:25;29.10;46.60
10300;DHT22;5195;48.562;9.192;2022-09-14T12:17:13;29.20;46.00
10300;DHT22;5195;48.562;9.192;2022-09-14T12:19:38;29.50;46.30
10300;DHT22;5195;48.562;9.192;2022-09-14T12:25:03;29.20;47.40
10300;DHT22;5195;48.562;9.192;2022-09-14T12:27:28;29.20;47.40
10300;DHT22;5195;48.562;9.192;2022-09-14T12:29:51;28.90;48.10
10300;DHT22;5195;48.562;9.192;2022-09-14T12:32:43;28.40;48.90
10300;DHT22;5195;48.562;9.192;2022-09-14T12:37:44;27.70;50.30
10300;DHT22;5195;48.562;9.192;2022-09-14T12:40:20;27.30;50.90
10300;DHT22;5195;48.562;9.192;2022-09-14T12:42:35;27.10;51.50
10300;DHT22;5195;48.562;9.192;2022-09-14T12:45:46;27.20;51.30
10300;DHT22;5195;48.562;9.192;2022-09-14T12:49:52;27.20;51.50
10300;DHT22;5195;48.562;9.192;2022-09-14T12:57:59;26.30;53.40
10300;DHT22;5195;48.562;9.192;2022-09-14T13:00:21;26.50;53.60
10300;DHT22;5195;48.562;9.192;2022-09-14T13:02:57;26.40;53.70
10300;DHT22;5195;48.562;9.192;2022-09-14T13:05:19;26.10;54.10
10300;DHT22;5195;48.562;9.192;2022-09-14T13:07:44;25.90;54.50
10300;DHT22;5195;48.562;9.192;2022-09-14T13:10:24;26.00;54.60
10300;DHT22;5195;48.562;9.192;2022-09-14T13:12:49;25.90;54.30
10300;DHT22;5195;48.562;9.192;2022-09-14T13:15:22;26.00;54.60
10300;DHT22;5195;48.562;9.192;2022-09-14T13:18:04;25.80;54.70
10300;DHT22;5195;48.562;9.192;2022-09-14T13:20:33;25.40;55.50
10300;DHT22;5195;48.562;9.192;2022-09-14T13:22:57;25.40;56.40
10300;DHT22;5195;48.562;9.192;2022-09-14T13:25:33;25.60;56.90
10300;DHT22;5195;48.562;9.192;2022-09-14T13:27:58;25.40;57.10
10300;DHT22;5195;48.562;9.192;2022-09-14T13:30:23;25.40;57.70
10300;DHT22;5195;48.562;9.192;2022-09-14T13:32:50;25.50;58.00
10300;DHT22;5195;48.562;9.192;2022-09-14T13:35:15;25.40;58.10
10300;DHT22;5195;48.562;9.192;2022-09-14T13:37:40;25.40;58.60
10300;DHT22;5195;48.562;9.192;2022-09-14T13:40:05;25.30;58.90
10300;DHT22;5195;48.562;9.192;2022-09-14T13:42:31;25.00;59.60
10300;DHT22;5195;48.562;9.192;2022-09-14T13:44:57;24.80;60.10
10300;DHT22;5195;48.562;9.192;2022-09-14T13:47:22;25.00;60.70
10300;DHT22;5195;48.562;9.192;2022-09-14T13:49:49;24.90;60.40
10300;DHT22;5195;48.562;9.192;2022-09-14T13:52:26;24.90;60.40
10300;DHT22;5195;48.562;9.192;2022-09-14T13:55:22;24.70;60.30
10300;DHT22;5195;48.562;9.192;2022-09-14T13:58:11;24.50;60.40
10300;DHT22;5195;48.562;9.192;2022-09-14T14:00:59;24.80;60.70
10300;DHT22;5195;48.562;9.192;2022-09-14T14:08:42;25.10;58.90
10300;DHT22;5195;48.562;9.192;2022-09-14T14:11:08;25.00;59.10
10300;DHT22;5195;48.562;9.192;2022-09-14T14:13:34;24.80;59.50
10300;DHT22;5195;48.562;9.192;2022-09-14T14:16:13;24.60;59.90
10300;DHT22;5195;48.562;9.192;2022-09-14T14:18:39;24.50;60.10
10300;DHT22;5195;48.562;9.192;2022-09-14T14:23:35;24.60;59.50
10300;DHT22;5195;48.562;9.192;2022-09-14T14:26:11;24.70;59.40
10300;DHT22;5195;48.562;9.192;2022-09-14T14:28:32;24.80;58.20
10300;DHT22;5195;48.562;9.192;2022-09-14T14:30:58;24.80;58.10
10300;DHT22;5195;48.562;9.192;2022-09-14T14:33:23;24.60;58.40
10300;DHT22;5195;48.562;9.192;2022-09-14T14:35:50;24.40;58.90
10300;DHT22;5195;48.562;9.192;2022-09-14T14:38:14;24.60;58.30
10300;DHT22;5195;48.562;9.192;2022-09-14T14:40:40;24.90;57.20
10300;DHT22;5195;48.562;9.192;2022-09-14T14:43:06;24.70;56.70
10300;DHT22;5195;48.562;9.192;2022-09-14T14:45:31;24.70;56.00
10300;DHT22;5195;48.562;9.192;2022-09-14T14:47:57;24.50;56.40
10300;DHT22;5195;48.562;9.192;2022-09-14T14:50:27;24.20;56.90
10300;DHT22;5195;48.562;9.192;2022-09-14T14:52:51;24.30;56.70
10300;DHT22;5195;48.562;9.192;2022-09-14T14:55:17;24.10;56.70
10300;DHT22;5195;48.562;9.192;2022-09-14T14:57:42;23.80;57.00
10300;DHT22;5195;48.562;9.192;2022-09-14T15:00:12;23.50;57.60
10300;DHT22;5195;48.562;9.192;2022-09-14T15:02:36;23.60;57.70
10300;DHT22;5195;48.562;9.192;2022-09-14T15:05:03;23.90;57.60
10300;DHT22;5195;48.562;9.192;2022-09-14T15:07:29;23.80;57.90
10300;DHT22;5195;48.562;9.192;2022-09-14T15:09:58;23.60;58.40
10300;DHT22;5195;48.562;9.192;2022-09-14T15:12:24;23.50;58.90
10300;DHT22;5195;48.562;9.192;2022-09-14T15:14:49;23.40;59.10
10300;DHT22;5195;48.562;9.192;2022-09-14T15:17:15;23.40;59.30
10300;DHT22;5195;48.562;9.192;2022-09-14T15:19:42;23.60;58.80
10300;DHT22;5195;48.562;9.192;2022-09-14T15:22:08;24.10;57.80
10300;DHT22;5195;48.562;9.192;2022-09-14T15:24:33;24.50;57.60
10300;DHT22;5195;48.562;9.192;2022-09-14T15:26:58;24.40;57.30
10300;DHT22;5195;48.562;9.192;2022-09-14T15:29:24;24.20;57.70
10300;DHT22;5195;48.562;9.192;2022-09-14T15:31:50;24.40;57.40
10300;DHT22;5195;48.562;9.192;2022-09-14T15:34:15;24.70;56.50
10300;DHT22;5195;48.562;9.192;2022-09-14T15:36:45;24.70;56.70
10300;DHT22;5195;48.562;9.192;2022-09-14T15:39:23;24.90;56.40
10300;DHT22;5195;48.562;9.192;2022-09-14T15:41:48;25.10;56.40
10300;DHT22;5195;48.562;9.192;2022-09-14T15:44:13;25.30;56.10
10300;DHT22;5195;48.562;9.192;2022-09-14T15:46:39;25.10;56.60
10300;DHT22;5195;48.562;9.192;2022-09-14T15:49:06;24.70;57.10
10300;DHT22;5195;48.562;9.192;2022-09-14T15:51:31;24.70;57.20
10300;DHT22;5195;48.562;9.192;2022-09-14T15:53:56;24.30;57.90
10300;DHT22;5195;48.562;9.192;2022-09-14T15:56:23;24.10;57.90
10300;DHT22;5195;48.562;9.192;2022-09-14T15:58:48;24.10;58.50
10300;DHT22;5195;48.562;9.192;2022-09-14T16:01:14;24.30;57.40
10300;DHT22;5195;48.562;9.192;2022-09-14T16:03:39;24.50;57.10
10300;DHT22;5195;48.562;9.192;2022-09-14T16:06:05;24.30;57.50
10300;DHT22;5195;48.562;9.192;2022-09-14T16:08:31;24.30;56.70
10300;DHT22;5195;48.562;9.192;2022-09-14T16:11:00;23.90;58.10
10300;DHT22;5195;48.562;9.192;2022-09-14T16:13:23;23.90;58.10
10300;DHT22;5195;48.562;9.192;2022-09-14T16:15:48;24.00;58.50
10300;DHT22;5195;48.562;9.192;2022-09-14T16:18:14;24.00;58.60
10300;DHT22;5195;48.562;9.192;2022-09-14T16:20:39;23.80;58.70
10300;DHT22;5195;48.562;9.192;2022-09-14T16:23:05;23.60;58.70
10300;DHT22;5195;48.562;9.192;2022-09-14T16:25:35;23.70;57.70
10300;DHT22;5195;48.562;9.192;2022-09-14T16:27:57;23.70;57.60
10300;DHT22;5195;48.562;9.192;2022-09-14T16:30:22;23.50;58.20
10300;DHT22;5195;48.562;9.192;2022-09-14T16:32:48;23.60;57.50
10300;DHT22;5195;48.562;9.192;2022-09-14T16:35:14;23.60;57.50
10300;DHT22;5195;48.562;9.192;2022-09-14T16:37:40;23.90;55.60
10300;DHT22;5195;48.562;9.192;2022-09-14T16:40:07;23.90;55.60
10300;DHT22;5195;48.562;9.192;2022-09-14T16:42:34;23.80;55.80
10300;DHT22;5195;48.562;9.192;2022-09-14T16:45:00;23.80;55.70
10300;DHT22;5195;48.562;9.192;2022-09-14T16:47:25;24.00;55.60
10300;DHT22;5195;48.562;9.192;2022-09-14T16:49:52;24.20;54.90
10300;DHT22;5195;48.562;9.192;2022-09-14T16:52:17;24.20;54.80
10300;DHT22;5195;48.562;9.192;2022-09-14T16:54:43;24.00;55.10
10300;DHT22;5195;48.562;9.192;2022-09-14T16:57:09;23.60;55.60
10300;DHT22;5195;48.562;9.192;2022-09-14T16:59:35;23.30;56.30
10300;DHT22;5195;48.562;9.192;2022-09-14T17:02:01;23.00;56.80
10300;DHT22;5195;48.562;9.192;2022-09-14T17:04:28;22.80;57.30
10300;DHT22;5195;48.562;9.192;2022-09-14T17:06:53;22.90;56.70
10300;DHT22;5195;48.562;9.192;2022-09-14T17:09:20;22.90;56.70
10300;DHT22;5195;48.562;9.192;2022-09-14T17:11:47;23.00;56.80
10300;DHT22;5195;48.562;9.192;2022-09-14T17:14:19;22.70;57.20
10300;DHT22;5195;48.562;9.192;2022-09-14T17:16:44;22.70;57.20
10300;DHT22;5195;48.562;9.192;2022-09-14T17:19:11;22.50;57.80
10300;DHT22;5195;48.562;9.192;2022-09-14T17:21:38;22.30;58.20
10300;DHT22;5195;48.562;9.192;2022-09-14T17:24:02;22.20;58.60
10300;DHT22;5195;48.562;9.192;2022-09-14T17:26:28;22.30;58.50